createdAt,value
2023-04-27T00:00:30.418Z,99343.44
2023-04-27T00:02:59.184Z,99350.81
2023-04-27T00:05:27.735Z,99365.13
2023-04-27T00:07:57.454Z,99368.91
2023-04-27T00:10:25.874Z,99374.78
2023-04-27T00:12:54.271Z,99379.38
2023-04-27T00:15:23.147Z,99377.03
2023-04-27T00:17:52.373Z,99378.78
2023-04-27T00:20:21.664Z,99373.94
2023-04-27T00:22:50.103Z,99374.16
2023-04-27T00:25:18.485Z,99380.81
2023-04-27T00:27:46.948Z,99382.34
2023-04-27T00:30:15.462Z,99387.44
2023-04-27T00:32:43.873Z,99392.00
2023-04-27T00:35:12.757Z,99396.06
2023-04-27T00:37:41.205Z,99396.50
2023-04-27T00:40:10.167Z,99398.19
2023-04-27T00:42:38.578Z,99410.13
2023-04-27T00:45:07.899Z,99422.38
2023-04-27T00:47:37.145Z,99421.34
2023-04-27T00:50:09.502Z,99423.88
2023-04-27T00:52:42.220Z,99432.78
2023-04-27T00:55:10.864Z,99429.91
2023-04-27T00:57:39.929Z,99442.91
2023-04-27T01:00:09.150Z,99449.00
2023-04-27T01:02:39.427Z,99452.06
2023-04-27T01:05:14.182Z,99457.41
2023-04-27T01:07:43.196Z,99452.03
2023-04-27T01:10:11.928Z,99457.38
2023-04-27T01:12:40.301Z,99464.75
2023-04-27T01:15:09.441Z,99476.47
2023-04-27T01:17:38.372Z,99473.38
2023-04-27T01:20:09.616Z,99480.97
2023-04-27T01:22:38.862Z,99495.28
2023-04-27T01:25:08.926Z,99492.94
2023-04-27T01:27:37.389Z,99497.53
2023-04-27T01:30:06.256Z,99504.41
2023-04-27T01:32:34.665Z,99508.44
2023-04-27T01:35:03.105Z,99513.75
2023-04-27T01:37:32.389Z,99522.44
2023-04-27T01:40:00.802Z,99518.25
2023-04-27T01:42:29.204Z,99527.19
2023-04-27T01:44:57.703Z,99524.88
2023-04-27T01:47:26.241Z,99535.13
2023-04-27T01:49:54.646Z,99534.84
2023-04-27T01:52:23.108Z,99531.50
2023-04-27T01:54:51.574Z,99528.06
2023-04-27T01:57:20.564Z,99543.16
2023-04-27T01:59:49.038Z,99543.38
2023-04-27T02:02:17.447Z,99536.69
2023-04-27T02:04:46.233Z,99538.44
2023-04-27T02:07:14.775Z,99536.59
2023-04-27T02:09:43.178Z,99546.53
2023-04-27T02:12:11.681Z,99551.56
2023-04-27T02:14:40.054Z,99550.41
2023-04-27T02:17:08.429Z,99550.03
2023-04-27T02:19:37.389Z,99552.50
2023-04-27T02:22:05.768Z,99550.56
2023-04-27T02:24:34.212Z,99557.13
2023-04-27T02:27:02.817Z,99549.03
2023-04-27T02:29:32.621Z,99546.78
2023-04-27T02:32:01.801Z,99540.75
2023-04-27T02:34:30.345Z,99542.41
2023-04-27T02:36:58.820Z,99535.91
2023-04-27T02:39:28.337Z,99530.47
2023-04-27T02:41:56.798Z,99525.59
2023-04-27T02:44:25.215Z,99525.38
2023-04-27T02:46:54.070Z,99522.22
2023-04-27T02:49:22.660Z,99521.59
2023-04-27T02:51:51.081Z,99527.56
2023-04-27T02:54:19.522Z,99516.59
2023-04-27T02:56:48.037Z,99514.47
2023-04-27T02:59:16.578Z,99514.34
2023-04-27T03:01:45.145Z,99514.78
2023-04-27T03:04:15.698Z,99509.56
2023-04-27T03:06:44.299Z,99502.84
2023-04-27T03:09:13.860Z,99498.38
2023-04-27T03:11:42.532Z,99497.72
2023-04-27T03:14:10.980Z,99490.44
2023-04-27T03:16:39.409Z,99495.97
2023-04-27T03:19:08.220Z,99493.16
2023-04-27T03:21:37.352Z,99487.69
2023-04-27T03:24:06.087Z,99483.34
2023-04-27T03:26:34.479Z,99482.06
2023-04-27T03:29:02.880Z,99473.78
2023-04-27T03:31:31.418Z,99467.44
2023-04-27T03:34:00.018Z,99469.41
2023-04-27T03:36:28.452Z,99456.66
2023-04-27T03:38:56.833Z,99454.69
2023-04-27T03:41:25.226Z,99446.28
2023-04-27T03:43:54.435Z,99449.22
2023-04-27T03:46:22.946Z,99444.72
2023-04-27T03:48:51.738Z,99438.38
2023-04-27T03:51:20.167Z,99437.69
2023-04-27T03:53:48.659Z,99429.06
2023-04-27T03:56:17.263Z,99429.69
2023-04-27T03:58:45.658Z,99425.41
2023-04-27T04:01:14.043Z,99417.75
2023-04-27T04:03:44.345Z,99417.06
2023-04-27T04:06:13.056Z,99408.41
2023-04-27T04:08:41.479Z,99409.22
2023-04-27T04:11:10.017Z,99412.09
2023-04-27T04:13:38.393Z,99402.16
2023-04-27T04:16:08.827Z,99398.19
2023-04-27T04:18:38.208Z,99395.97
2023-04-27T04:21:06.845Z,99389.94
2023-04-27T04:23:35.212Z,99390.34
2023-04-27T04:26:03.586Z,99385.28
2023-04-27T04:28:32.435Z,99380.63
2023-04-27T04:31:03.065Z,99362.53
2023-04-27T04:33:32.183Z,99360.13
2023-04-27T04:36:01.335Z,99368.06
2023-04-27T04:38:30.201Z,99360.34
2023-04-27T04:40:58.750Z,99357.75
2023-04-27T04:43:27.800Z,99348.31
2023-04-27T04:45:56.413Z,99333.75
2023-04-27T04:48:25.100Z,99337.34
2023-04-27T04:50:53.875Z,99331.88
2023-04-27T04:53:22.247Z,99325.25
2023-04-27T04:55:50.612Z,99319.97
2023-04-27T04:58:19.038Z,99319.19
2023-04-27T05:00:47.505Z,99317.31
2023-04-27T05:03:15.988Z,99311.25
2023-04-27T05:05:44.482Z,99301.97
2023-04-27T05:08:12.952Z,99301.22
2023-04-27T05:10:41.297Z,99299.50
2023-04-27T05:13:09.675Z,99298.75
2023-04-27T05:15:38.957Z,99300.97
2023-04-27T05:18:07.396Z,99286.38
2023-04-27T05:20:40.226Z,99280.88
2023-04-27T05:23:08.599Z,99287.13
2023-04-27T05:25:43.473Z,99285.63
2023-04-27T05:28:12.381Z,99280.53
2023-04-27T05:30:40.829Z,99279.53
2023-04-27T05:33:09.400Z,99275.94
2023-04-27T05:35:37.838Z,99278.97
2023-04-27T05:38:06.421Z,99270.78
2023-04-27T05:40:34.827Z,99260.38
2023-04-27T05:43:06.279Z,99251.25
2023-04-27T05:45:34.737Z,99246.13
2023-04-27T05:48:03.156Z,99242.50
2023-04-27T05:50:31.583Z,99223.13
2023-04-27T05:52:59.990Z,99215.50
2023-04-27T05:55:28.375Z,99209.75
2023-04-27T05:58:07.117Z,99209.72
2023-04-27T06:00:37.919Z,99198.69
2023-04-27T06:03:06.651Z,99194.28
2023-04-27T06:05:35.511Z,99182.50
2023-04-27T06:08:04.168Z,99173.53
2023-04-27T06:10:32.638Z,99175.47
2023-04-27T06:13:01.640Z,99174.28
2023-04-27T06:15:30.996Z,99181.66
2023-04-27T06:17:59.512Z,99161.75
2023-04-27T06:20:28.465Z,99149.03
2023-04-27T06:22:58.883Z,99150.16
2023-04-27T06:25:29.419Z,99142.38
2023-04-27T06:27:58.657Z,99139.88
2023-04-27T06:30:27.183Z,99136.06
2023-04-27T06:32:55.711Z,99127.34
2023-04-27T06:35:24.501Z,99121.25
2023-04-27T06:37:53.108Z,99118.31
2023-04-27T06:40:21.703Z,99110.31
2023-04-27T06:42:50.104Z,99106.44
2023-04-27T06:45:18.566Z,99101.66
2023-04-27T06:47:47.606Z,99093.97
2023-04-27T06:50:17.391Z,99096.31
2023-04-27T06:52:45.801Z,99087.53
2023-04-27T06:55:14.216Z,99079.81
2023-04-27T06:57:42.982Z,99066.94
2023-04-27T07:00:14.264Z,99068.28
2023-04-27T07:02:42.754Z,99055.38
2023-04-27T07:05:11.296Z,99050.63
2023-04-27T07:07:39.718Z,99049.44
2023-04-27T07:10:09.079Z,99041.28
2023-04-27T07:12:38.638Z,99047.03
2023-04-27T07:15:08.205Z,99043.59
2023-04-27T07:17:36.802Z,99034.31
2023-04-27T07:20:07.120Z,99037.75
2023-04-27T07:22:35.691Z,99032.47
2023-04-27T07:25:04.944Z,99024.38
2023-04-27T07:27:33.992Z,99025.53
2023-04-27T07:30:02.428Z,99015.66
2023-04-27T07:32:30.980Z,99011.31
2023-04-27T07:34:59.737Z,99013.47
2023-04-27T07:37:28.171Z,99005.75
2023-04-27T07:39:56.747Z,98994.47
2023-04-27T07:42:25.975Z,98982.47
2023-04-27T07:44:55.201Z,98984.59
2023-04-27T07:47:23.839Z,98968.41
2023-04-27T07:49:53.933Z,98967.13
2023-04-27T07:52:22.700Z,98965.53
2023-04-27T07:54:51.477Z,98964.06
2023-04-27T07:57:19.849Z,98952.63
2023-04-27T07:59:48.495Z,98962.16
2023-04-27T08:02:20.066Z,98960.31
2023-04-27T08:04:49.740Z,98956.34
2023-04-27T08:07:19.731Z,98958.84
2023-04-27T08:09:48.353Z,98952.03
2023-04-27T08:12:16.884Z,98955.28
2023-04-27T08:14:45.271Z,98945.50
2023-04-27T08:17:13.697Z,98937.41
2023-04-27T08:19:42.544Z,98931.94
2023-04-27T08:22:10.961Z,98934.09
2023-04-27T08:24:39.351Z,98936.59
2023-04-27T08:27:08.344Z,98935.50
2023-04-27T08:29:37.135Z,98929.28
2023-04-27T08:32:06.869Z,98941.03
2023-04-27T08:34:35.279Z,98934.81
2023-04-27T08:37:05.302Z,98938.44
2023-04-27T08:39:33.724Z,98929.41
2023-04-27T08:42:02.255Z,98931.13
2023-04-27T08:44:31.228Z,98927.75
2023-04-27T08:47:00.101Z,98919.66
2023-04-27T08:49:28.524Z,98919.88
2023-04-27T08:51:57.189Z,98922.94
2023-04-27T08:54:25.574Z,98916.16
2023-04-27T08:56:53.975Z,98920.69
2023-04-27T08:59:22.380Z,98916.72
2023-04-27T09:01:52.029Z,98907.88
2023-04-27T09:04:20.792Z,98920.34
2023-04-27T09:06:50.685Z,98929.06
2023-04-27T09:09:26.137Z,98923.06
2023-04-27T09:11:54.585Z,98913.63
2023-04-27T09:14:25.017Z,98918.31
2023-04-27T09:17:02.843Z,98916.06
2023-04-27T09:19:32.547Z,98913.81
2023-04-27T09:22:09.217Z,98920.22
2023-04-27T09:24:38.710Z,98915.31
2023-04-27T09:27:09.845Z,98920.81
2023-04-27T09:29:39.873Z,98922.13
2023-04-27T09:32:18.033Z,98927.63
2023-04-27T09:34:46.627Z,98928.19
2023-04-27T09:37:16.049Z,98926.50
2023-04-27T09:39:44.835Z,98934.81
2023-04-27T09:42:14.301Z,98939.56
2023-04-27T09:44:42.749Z,98936.34
2023-04-27T09:47:12.345Z,98943.75
2023-04-27T09:49:40.843Z,98933.91
2023-04-27T09:52:09.259Z,98936.34
2023-04-27T09:54:38.598Z,98932.41
2023-04-27T09:57:34.502Z,98928.44
2023-04-27T10:00:17.842Z,98922.22
2023-04-27T10:03:04.717Z,98925.41
2023-04-27T10:05:52.443Z,98922.22
2023-04-27T10:08:22.036Z,98917.50
2023-04-27T10:10:51.502Z,98926.38
2023-04-27T10:13:28.068Z,98918.28
2023-04-27T10:15:56.506Z,98915.28
2023-04-27T10:18:32.379Z,98916.41
2023-04-27T10:21:21.146Z,98926.97
2023-04-27T10:23:52.221Z,98933.22
2023-04-27T10:26:25.635Z,98934.31
2023-04-27T10:29:07.991Z,98932.03
2023-04-27T10:31:37.175Z,98932.63
2023-04-27T10:34:13.069Z,98931.09
2023-04-27T10:36:42.199Z,98930.91
2023-04-27T10:39:30.064Z,98927.88
2023-04-27T10:42:09.132Z,98931.28
2023-04-27T10:44:39.653Z,98930.34
2023-04-27T10:47:16.638Z,98930.16
2023-04-27T10:49:45.101Z,98935.63
2023-04-27T10:52:14.674Z,98938.81
2023-04-27T10:54:47.840Z,98953.91
2023-04-27T10:57:17.377Z,98961.25
2023-04-27T10:59:54.897Z,98960.09
2023-04-27T11:02:30.663Z,98968.22
2023-04-27T11:04:59.685Z,98972.75
2023-04-27T11:07:30.003Z,98979.34
2023-04-27T11:09:58.421Z,98980.47
2023-04-27T11:12:26.989Z,98990.06
2023-04-27T11:15:01.778Z,98990.22
2023-04-27T11:17:34.085Z,98996.97
2023-04-27T11:20:02.600Z,98979.63
2023-04-27T11:22:31.305Z,98989.22
2023-04-27T11:24:59.827Z,98992.22
2023-04-27T11:27:38.661Z,99003.13
2023-04-27T11:30:08.603Z,99010.66
2023-04-27T11:32:37.403Z,99012.53
2023-04-27T11:35:06.106Z,99021.56
2023-04-27T11:37:34.581Z,99024.19
2023-04-27T11:40:03.003Z,99024.75
2023-04-27T11:42:33.104Z,99031.72
2023-04-27T11:45:03.747Z,99030.97
2023-04-27T11:47:33.775Z,99026.63
2023-04-27T11:50:08.570Z,99040.75
2023-04-27T11:52:38.871Z,99034.34
2023-04-27T11:55:09.885Z,99041.31
2023-04-27T11:57:38.481Z,99047.53
2023-04-27T12:00:15.382Z,99057.13
2023-04-27T12:02:45.394Z,99068.97
2023-04-27T12:05:14.711Z,99077.25
2023-04-27T12:07:46.488Z,99086.31
2023-04-27T12:10:14.917Z,99090.78
2023-04-27T12:12:43.953Z,99084.91
2023-04-27T12:15:12.870Z,99091.88
2023-04-27T12:17:41.782Z,99085.28
2023-04-27T12:20:10.978Z,99076.59
2023-04-27T12:22:39.736Z,99079.22
2023-04-27T12:25:08.381Z,99076.94
2023-04-27T12:27:36.815Z,99078.78
2023-04-27T12:30:05.813Z,99080.84
2023-04-27T12:32:34.230Z,99077.84
2023-04-27T12:35:02.692Z,99079.16
2023-04-27T12:37:31.068Z,99079.50
2023-04-27T12:39:59.511Z,99096.25
2023-04-27T12:42:28.163Z,99103.75
2023-04-27T12:44:56.525Z,99116.38
2023-04-27T12:49:56.317Z,99114.63
2023-04-27T12:52:25.578Z,99115.19
2023-04-27T12:54:58.653Z,99131.16
2023-04-27T12:57:27.666Z,99147.91
2023-04-27T12:59:56.044Z,99159.00
2023-04-27T13:02:24.738Z,99166.72
2023-04-27T13:04:53.733Z,99169.53
2023-04-27T13:07:22.179Z,99176.69
2023-04-27T13:09:50.681Z,99175.19
2023-04-27T13:12:19.160Z,99187.78
2023-04-27T13:14:47.616Z,99183.25
2023-04-27T13:17:15.997Z,99182.84
2023-04-27T13:19:44.441Z,99180.34
2023-04-27T13:22:13.083Z,99181.47
2023-04-27T13:24:43.052Z,99185.16
2023-04-27T13:27:11.507Z,99194.72
2023-04-27T13:29:39.875Z,99195.59
2023-04-27T13:32:08.293Z,99200.28
2023-04-27T13:34:36.913Z,99201.34
2023-04-27T13:37:05.368Z,99193.78
2023-04-27T13:39:34.111Z,99209.94
2023-04-27T13:42:02.999Z,99213.88
2023-04-27T13:44:32.655Z,99219.81
2023-04-27T13:47:01.172Z,99225.03
2023-04-27T13:49:29.582Z,99232.53
2023-04-27T13:52:01.863Z,99228.00
2023-04-27T13:54:30.389Z,99229.09
2023-04-27T13:56:58.761Z,99221.16
2023-04-27T13:59:27.176Z,99220.94
2023-04-27T14:01:56.532Z,99213.59
2023-04-27T14:04:25.022Z,99213.38
2023-04-27T14:06:53.498Z,99202.63
2023-04-27T14:09:22.303Z,99201.66
2023-04-27T14:11:56.578Z,99197.31
2023-04-27T14:14:25.820Z,99205.78
2023-04-27T14:16:54.942Z,99206.09
2023-04-27T14:19:23.449Z,99207.41
2023-04-27T14:21:51.898Z,99210.75
2023-04-27T14:24:20.681Z,99210.75
2023-04-27T14:26:50.483Z,99200.56
2023-04-27T14:29:19.913Z,99206.75
2023-04-27T14:31:49.872Z,99202.19
2023-04-27T14:34:20.951Z,99197.88
2023-04-27T14:36:50.059Z,99200.69
2023-04-27T14:39:18.641Z,99198.97
2023-04-27T14:41:47.064Z,99189.50
2023-04-27T14:44:15.493Z,99198.50
2023-04-27T14:46:43.979Z,99206.00
2023-04-27T14:49:12.797Z,99207.28
2023-04-27T14:51:43.402Z,99212.72
2023-04-27T14:54:12.277Z,99207.38
2023-04-27T14:56:40.891Z,99206.41
2023-04-27T14:59:09.362Z,99216.72
2023-04-27T15:01:38.107Z,99219.31
2023-04-27T15:04:07.516Z,99217.56
2023-04-27T15:06:35.960Z,99218.34
2023-04-27T15:09:05.592Z,99223.00
2023-04-27T15:11:34.195Z,99226.91
2023-04-27T15:14:02.548Z,99239.47
2023-04-27T15:16:31.000Z,99240.56
2023-04-27T15:18:59.487Z,99236.00
2023-04-27T15:21:27.899Z,99230.13
2023-04-27T15:23:56.320Z,99232.19
2023-04-27T15:26:24.751Z,99227.09
2023-04-27T15:28:53.114Z,99233.81
2023-04-27T15:31:22.213Z,99232.06
2023-04-27T15:33:50.613Z,99235.22
2023-04-27T15:36:19.048Z,99235.22
2023-04-27T15:38:47.661Z,99241.16
2023-04-27T15:41:16.048Z,99246.59
2023-04-27T15:43:44.421Z,99237.16
2023-04-27T15:46:12.905Z,99242.03
2023-04-27T15:48:41.291Z,99236.72
2023-04-27T15:51:10.393Z,99242.84
2023-04-27T15:53:40.520Z,99246.22
2023-04-27T15:56:09.044Z,99249.53
2023-04-27T15:58:37.478Z,99253.44
2023-04-27T16:01:06.250Z,99253.22
2023-04-27T16:03:35.784Z,99248.13
2023-04-27T16:06:04.339Z,99251.47
2023-04-27T16:08:33.464Z,99248.44
2023-04-27T16:11:02.145Z,99251.78
2023-04-27T16:13:30.651Z,99235.44
2023-04-27T16:15:59.053Z,99231.09
2023-04-27T16:18:27.481Z,99228.81
2023-04-27T16:20:55.880Z,99226.53
2023-04-27T16:23:25.372Z,99219.16
2023-04-27T16:25:53.846Z,99218.41
2023-04-27T16:28:22.281Z,99209.72
2023-04-27T16:30:50.740Z,99213.84
2023-04-27T16:33:20.204Z,99205.94
2023-04-27T16:35:48.946Z,99204.38
2023-04-27T16:38:17.563Z,99198.53
2023-04-27T16:40:46.002Z,99199.28
2023-04-27T16:43:14.415Z,99189.88
2023-04-27T16:45:42.960Z,99181.72
2023-04-27T16:48:14.228Z,99194.28
2023-04-27T16:50:43.046Z,99196.13
2023-04-27T16:53:20.553Z,99195.38
2023-04-27T16:55:49.395Z,99179.00
2023-04-27T16:58:17.768Z,99181.59
2023-04-27T17:00:46.230Z,99177.28
2023-04-27T17:03:14.848Z,99173.69
2023-04-27T17:05:43.389Z,99169.38
2023-04-27T17:08:11.999Z,99166.31
2023-04-27T17:10:40.640Z,99154.84
2023-04-27T17:13:11.588Z,99153.88
2023-04-27T17:15:40.375Z,99153.66
2023-04-27T17:18:10.698Z,99150.56
2023-04-27T17:20:40.977Z,99145.78
2023-04-27T17:23:10.690Z,99152.47
2023-04-27T17:25:39.117Z,99138.72
2023-04-27T17:28:07.620Z,99140.78
2023-04-27T17:30:36.118Z,99146.19
2023-04-27T17:33:04.911Z,99136.00
2023-04-27T17:35:33.506Z,99125.81
2023-04-27T17:38:02.040Z,99128.41
2023-04-27T17:40:31.934Z,99117.69
2023-04-27T17:43:01.188Z,99111.03
2023-04-27T17:45:30.316Z,99105.19
2023-04-27T17:48:01.990Z,99101.41
2023-04-27T17:50:31.774Z,99104.00
2023-04-27T17:53:00.398Z,99110.91
2023-04-27T17:55:28.856Z,99107.13
2023-04-27T17:57:57.338Z,99104.09
2023-04-27T18:00:26.011Z,99118.69
2023-04-27T18:02:54.534Z,99117.69
2023-04-27T18:05:23.159Z,99122.34
2023-04-27T18:07:51.618Z,99106.53
2023-04-27T18:10:20.061Z,99104.25
2023-04-27T18:12:48.525Z,99103.28
2023-04-27T18:15:17.014Z,99114.28
2023-04-27T18:17:46.038Z,99105.06
2023-04-27T18:20:17.475Z,99104.31
2023-04-27T18:22:45.800Z,99096.41
2023-04-27T18:25:14.331Z,99095.66
2023-04-27T18:27:44.802Z,99088.50
2023-04-27T18:30:13.504Z,99088.28
2023-04-27T18:32:42.061Z,99076.06
2023-04-27T18:35:10.882Z,99085.78
2023-04-27T18:37:39.443Z,99084.25
2023-04-27T18:40:08.561Z,99081.97
2023-04-27T18:42:36.830Z,99077.88
2023-04-27T18:45:05.485Z,99072.53
2023-04-27T18:47:33.774Z,99072.00
2023-04-27T18:50:02.071Z,99070.75
2023-04-27T18:52:30.613Z,99078.91
2023-04-27T18:54:58.949Z,99075.13
2023-04-27T18:57:27.422Z,99090.47
2023-04-27T18:59:55.821Z,99080.53
2023-04-27T19:02:26.269Z,99084.63
2023-04-27T19:05:11.631Z,99076.72
2023-04-27T19:07:42.039Z,99082.88
2023-04-27T19:10:11.007Z,99082.13
2023-04-27T19:12:39.517Z,99072.94
2023-04-27T19:15:08.157Z,99073.69
2023-04-27T19:17:36.744Z,99082.88
2023-04-27T19:20:05.544Z,99079.31
2023-04-27T19:22:36.172Z,99073.47
2023-04-27T19:25:11.509Z,99070.41
2023-04-27T19:27:41.150Z,99073.97
2023-04-27T19:30:11.368Z,99071.69
2023-04-27T19:32:40.521Z,99069.94
2023-04-27T19:35:12.320Z,99066.91
2023-04-27T19:37:40.977Z,99061.06
2023-04-27T19:40:10.528Z,99046.03
2023-04-27T19:42:39.069Z,99044.50
2023-04-27T19:45:08.480Z,99035.31
2023-04-27T19:47:37.327Z,99035.09
2023-04-27T19:50:06.451Z,99034.31
2023-04-27T19:52:34.925Z,99044.81
2023-04-27T19:55:03.298Z,99050.97
2023-04-27T19:57:31.804Z,99047.38
2023-04-27T20:00:00.311Z,99056.34
2023-04-27T20:02:29.188Z,99053.53
2023-04-27T20:04:58.933Z,99054.06
2023-04-27T20:07:27.793Z,99061.75
2023-04-27T20:09:56.272Z,99067.91
2023-04-27T20:12:47.484Z,99068.44
2023-04-27T20:15:14.010Z,99065.63
2023-04-27T20:17:43.245Z,99061.28
2023-04-27T20:20:12.822Z,99054.16
2023-04-27T20:22:41.694Z,99054.91
2023-04-27T20:25:10.885Z,99052.59
2023-04-27T20:27:40.044Z,99045.72
2023-04-27T20:30:09.171Z,99053.09
2023-04-27T20:32:40.387Z,99056.88
2023-04-27T20:35:14.069Z,99046.19
2023-04-27T20:37:44.439Z,99051.81
2023-04-27T20:40:17.790Z,99054.38
2023-04-27T20:42:46.667Z,99059.47
2023-04-27T20:45:15.071Z,99056.44
2023-04-27T20:47:43.601Z,99064.38
2023-04-27T20:50:13.074Z,99058.53
2023-04-27T20:52:41.614Z,99062.63
2023-04-27T20:55:10.465Z,99067.25
2023-04-27T20:57:38.892Z,99064.22
2023-04-27T21:00:10.685Z,99067.03
2023-04-27T21:02:39.262Z,99067.56
2023-04-27T21:05:07.695Z,99069.38
2023-04-27T21:07:36.175Z,99070.16
2023-04-27T21:10:07.156Z,99071.97
2023-04-27T21:12:35.792Z,99074.78
2023-04-27T21:15:04.356Z,99071.22
2023-04-27T21:17:33.610Z,99074.78
2023-04-27T21:20:02.052Z,99071.97
2023-04-27T21:22:30.534Z,99073.25
2023-04-27T21:24:59.004Z,99071.97
2023-04-27T21:27:28.932Z,99078.34
2023-04-27T21:30:00.561Z,99085.25
2023-04-27T21:32:29.221Z,99078.88
2023-04-27T21:34:57.918Z,99078.13
2023-04-27T21:37:27.098Z,99080.16
2023-04-27T21:39:55.571Z,99082.75
2023-04-27T21:42:24.469Z,99089.66
2023-04-27T21:44:52.932Z,99087.38
2023-04-27T21:47:21.434Z,99087.38
2023-04-27T21:49:51.844Z,99100.66
2023-04-27T21:52:22.466Z,99106.28
2023-04-27T21:54:50.970Z,99115.22
2023-04-27T21:57:20.121Z,99105.25
2023-04-27T21:59:48.774Z,99108.06
2023-04-27T22:02:17.221Z,99101.69
2023-04-27T22:04:46.381Z,99110.88
2023-04-27T22:07:15.203Z,99130.31
2023-04-27T22:09:43.608Z,99133.13
2023-04-27T22:12:12.057Z,99133.13
2023-04-27T22:14:40.469Z,99144.84
2023-04-27T22:17:08.859Z,99148.94
2023-04-27T22:19:37.283Z,99156.63
2023-04-27T22:22:05.760Z,99167.84
2023-04-27T22:24:34.680Z,99167.09
2023-04-27T22:27:03.229Z,99166.31
2023-04-27T22:29:31.882Z,99166.09
2023-04-27T22:32:00.605Z,99161.00
2023-04-27T22:34:29.230Z,99167.38
2023-04-27T22:36:58.236Z,99170.94
2023-04-27T22:39:26.813Z,99175.81
2023-04-27T22:41:55.197Z,99189.84
2023-04-27T22:44:23.684Z,99192.66
2023-04-27T22:46:52.173Z,99201.09
2023-04-27T22:49:20.592Z,99196.75
2023-04-27T22:51:49.471Z,99200.84
2023-04-27T22:54:18.111Z,99203.66
2023-04-27T22:56:46.853Z,99201.38
2023-04-27T22:59:15.294Z,99209.03
2023-04-27T23:01:43.639Z,99217.47
2023-04-27T23:04:12.103Z,99219.50
2023-04-27T23:06:40.797Z,99223.84
2023-04-27T23:09:09.326Z,99228.16
2023-04-27T23:11:37.752Z,99226.13
2023-04-27T23:14:06.168Z,99228.16
2023-04-27T23:16:34.714Z,99234.78
2023-04-27T23:19:03.220Z,99238.34
2023-04-27T23:21:32.816Z,99236.53
2023-04-27T23:24:01.180Z,99245.72
2023-04-27T23:26:30.584Z,99245.97
2023-04-27T23:28:59.737Z,99250.56
2023-04-27T23:31:28.638Z,99257.22
2023-04-27T23:33:57.059Z,99262.31
2023-04-27T23:36:25.456Z,99266.09
2023-04-27T23:38:53.787Z,99265.28
2023-04-27T23:41:22.826Z,99265.53
2023-04-27T23:43:51.194Z,99272.38
2023-04-27T23:46:19.562Z,99268.28
2023-04-27T23:48:48.598Z,99274.59
2023-04-27T23:51:17.373Z,99277.91
2023-04-27T23:53:46.341Z,99284.53
2023-04-27T23:56:21.377Z,99296.75
2023-04-27T23:58:50.283Z,99301.56
